createdAt,value
2023-05-06T00:01:40.691Z,96721.38
2023-05-06T00:03:42.545Z,96719.16
2023-05-06T00:05:45.927Z,96715.34
2023-05-06T00:07:47.523Z,96715.41
2023-05-06T00:09:49.274Z,96709.81
2023-05-06T00:11:51.476Z,96700.16
2023-05-06T00:13:53.035Z,96701.75
2023-05-06T00:15:54.628Z,96691.34
2023-05-06T00:17:56.565Z,96696.75
2023-05-06T00:19:58.612Z,96696.06
2023-05-06T00:22:00.635Z,96699.34
2023-05-06T00:24:02.284Z,96693.16
2023-05-06T00:26:04.049Z,96698.22
2023-05-06T00:28:05.634Z,96691.13
2023-05-06T00:30:07.865Z,96687.88
2023-05-06T00:32:09.514Z,96691.59
2023-05-06T00:34:11.230Z,96696.31
2023-05-06T00:36:12.883Z,96689.97
2023-05-06T00:38:19.486Z,96699.41
2023-05-06T00:40:21.133Z,96701.59
2023-05-06T00:42:23.230Z,96704.22
2023-05-06T00:44:24.847Z,96705.09
2023-05-06T00:46:26.958Z,96711.59
2023-05-06T00:48:29.088Z,96711.59
2023-05-06T00:50:32.517Z,96708.47
2023-05-06T00:52:34.353Z,96703.78
2023-05-06T00:54:36.130Z,96712.38
2023-05-06T00:56:37.866Z,96705.03
2023-05-06T00:58:39.579Z,96712.97
2023-05-06T01:00:42.520Z,96700.84
2023-05-06T01:02:47.766Z,96703.31
2023-05-06T01:04:49.640Z,96698.22
2023-05-06T01:07:06.384Z,96707.03
2023-05-06T01:09:23.021Z,96704.97
2023-05-06T01:11:35.180Z,96699.03
2023-05-06T01:13:50.039Z,96700.94
2023-05-06T01:15:55.449Z,96703.66
2023-05-06T01:18:00.404Z,96703.41
2023-05-06T01:20:04.735Z,96700.44
2023-05-06T01:22:07.410Z,96704.84
2023-05-06T01:24:09.242Z,96702.97
2023-05-06T01:26:12.221Z,96700.44
2023-05-06T01:28:15.651Z,96697.97
2023-05-06T01:30:21.251Z,96693.25
2023-05-06T01:32:31.522Z,96695.53
2023-05-06T01:34:46.287Z,96697.66
2023-05-06T01:37:08.065Z,96697.41
2023-05-06T01:39:18.161Z,96712.31
2023-05-06T01:41:21.211Z,96705.38
2023-05-06T01:43:26.288Z,96704.84
2023-05-06T01:45:31.709Z,96708.97
2023-05-06T01:47:34.777Z,96708.03
2023-05-06T01:49:36.938Z,96714.09
2023-05-06T01:51:39.483Z,96717.00
2023-05-06T01:53:41.331Z,96712.72
2023-05-06T01:55:42.978Z,96708.63
2023-05-06T01:57:44.506Z,96708.06
2023-05-06T01:59:46.071Z,96708.97
2023-05-06T02:01:47.643Z,96710.88
2023-05-06T02:03:49.787Z,96715.31
2023-05-06T02:05:51.769Z,96715.66
2023-05-06T02:07:55.304Z,96720.59
2023-05-06T02:09:57.158Z,96715.09
2023-05-06T02:11:59.168Z,96718.22
2023-05-06T02:14:01.952Z,96711.38
2023-05-06T02:16:05.396Z,96713.31
2023-05-06T02:18:08.219Z,96712.34
2023-05-06T02:20:10.069Z,96711.16
2023-05-06T02:22:11.586Z,96714.50
2023-05-06T02:24:13.122Z,96713.16
2023-05-06T02:26:16.387Z,96727.06
2023-05-06T02:28:17.921Z,96723.84
2023-05-06T02:30:19.586Z,96719.63
2023-05-06T02:32:21.212Z,96721.97
2023-05-06T02:34:22.788Z,96719.97
2023-05-06T02:36:24.423Z,96715.25
2023-05-06T02:38:26.430Z,96713.09
2023-05-06T02:40:28.219Z,96715.31
2023-05-06T02:42:29.828Z,96713.94
2023-05-06T02:44:31.624Z,96719.88
2023-05-06T02:46:33.735Z,96697.31
2023-05-06T02:48:35.400Z,96708.09
2023-05-06T02:50:37.985Z,96702.88
2023-05-06T02:52:39.670Z,96707.97
2023-05-06T02:54:41.300Z,96710.44
2023-05-06T02:56:43.206Z,96709.13
2023-05-06T02:58:44.772Z,96713.38
2023-05-06T03:00:46.383Z,96706.91
2023-05-06T03:02:48.085Z,96711.34
2023-05-06T03:04:49.953Z,96713.69
2023-05-06T03:06:51.620Z,96711.47
2023-05-06T03:08:53.169Z,96714.72
2023-05-06T03:10:54.708Z,96712.09
2023-05-06T03:12:56.852Z,96720.00
2023-05-06T03:14:58.463Z,96716.94
2023-05-06T03:17:00.383Z,96728.13
2023-05-06T03:19:03.729Z,96715.25
2023-05-06T03:21:05.844Z,96720.44
2023-05-06T03:23:10.909Z,96719.53
2023-05-06T03:25:12.630Z,96718.66
2023-05-06T03:27:15.980Z,96725.19
2023-05-06T03:29:19.683Z,96727.75
2023-05-06T03:31:22.295Z,96731.88
2023-05-06T03:33:23.964Z,96724.13
2023-05-06T03:35:25.592Z,96728.72
2023-05-06T03:37:30.977Z,96729.13
2023-05-06T03:39:32.889Z,96725.50
2023-05-06T03:41:36.250Z,96728.84
2023-05-06T03:43:38.206Z,96733.25
2023-05-06T03:45:40.411Z,96728.19
2023-05-06T03:47:42.821Z,96726.59
2023-05-06T03:49:46.587Z,96724.31
2023-05-06T03:51:48.396Z,96734.44
2023-05-06T03:53:52.961Z,96741.09
2023-05-06T03:55:56.243Z,96736.81
2023-05-06T03:57:57.878Z,96732.56
2023-05-06T03:59:59.929Z,96739.84
2023-05-06T04:02:02.338Z,96736.31
2023-05-06T04:04:04.377Z,96728.19
2023-05-06T04:06:06.863Z,96735.13
2023-05-06T04:08:08.368Z,96737.38
2023-05-06T04:10:10.673Z,96739.66
2023-05-06T04:12:12.833Z,96744.34
2023-05-06T04:14:14.521Z,96744.03
2023-05-06T04:16:16.471Z,96739.66
2023-05-06T04:18:19.912Z,96745.06
2023-05-06T04:20:30.340Z,96751.53
2023-05-06T04:22:32.131Z,96746.78
2023-05-06T04:24:34.324Z,96745.97
2023-05-06T04:26:36.525Z,96751.38
2023-05-06T04:28:38.654Z,96749.03
2023-05-06T04:30:41.104Z,96757.16
2023-05-06T04:32:43.267Z,96757.84
2023-05-06T04:34:47.150Z,96763.25
2023-05-06T04:36:51.053Z,96766.44
2023-05-06T04:39:01.153Z,96758.75
2023-05-06T04:41:03.882Z,96764.19
2023-05-06T04:43:05.869Z,96763.72
2023-05-06T04:45:08.510Z,96771.44
2023-05-06T04:47:12.795Z,96772.84
2023-05-06T04:49:16.997Z,96768.53
2023-05-06T04:51:19.627Z,96777.03
2023-05-06T04:53:21.211Z,96778.81
2023-05-06T04:55:23.157Z,96783.72
2023-05-06T04:57:27.896Z,96773.28
2023-05-06T04:59:30.355Z,96778.47
2023-05-06T05:01:32.394Z,96770.84
2023-05-06T05:03:34.776Z,96774.16
2023-05-06T05:05:38.392Z,96784.22
2023-05-06T05:07:47.383Z,96777.72
2023-05-06T05:09:49.483Z,96773.00
2023-05-06T05:11:51.345Z,96782.63
2023-05-06T05:13:56.059Z,96784.75
2023-05-06T05:15:58.531Z,96782.72
2023-05-06T05:18:04.404Z,96779.06
2023-05-06T05:20:06.331Z,96789.75
2023-05-06T05:22:07.851Z,96780.50
2023-05-06T05:24:09.388Z,96778.53
2023-05-06T05:26:11.034Z,96784.34
2023-05-06T05:28:14.253Z,96772.84
2023-05-06T05:30:16.436Z,96781.53
2023-05-06T05:32:18.229Z,96788.66
2023-05-06T05:34:20.204Z,96790.56
2023-05-06T05:36:23.379Z,96790.16
2023-05-06T05:38:28.028Z,96792.34
2023-05-06T05:40:30.312Z,96793.56
2023-05-06T05:42:33.680Z,96791.59
2023-05-06T05:44:39.316Z,96798.03
2023-05-06T05:46:41.797Z,96790.53
2023-05-06T05:48:45.570Z,96797.94
2023-05-06T05:50:47.234Z,96796.56
2023-05-06T05:52:49.474Z,96794.56
2023-05-06T05:54:52.082Z,96796.25
2023-05-06T05:56:53.668Z,96800.06
2023-05-06T05:58:56.931Z,96792.66
2023-05-06T06:00:59.333Z,96802.34
2023-05-06T06:03:02.035Z,96805.50
2023-05-06T06:05:04.088Z,96799.75
2023-05-06T06:07:05.835Z,96798.41
2023-05-06T06:09:11.985Z,96802.31
2023-05-06T06:11:15.207Z,96805.88
2023-05-06T06:13:16.843Z,96806.97
2023-05-06T06:15:18.413Z,96808.50
2023-05-06T06:17:20.564Z,96811.19
2023-05-06T06:19:24.647Z,96818.44
2023-05-06T06:21:27.516Z,96809.41
2023-05-06T06:23:29.566Z,96813.88
2023-05-06T06:25:31.187Z,96813.41
2023-05-06T06:27:36.848Z,96810.41
2023-05-06T06:29:38.735Z,96807.31
2023-05-06T06:31:40.834Z,96809.88
2023-05-06T06:33:43.198Z,96818.75
2023-05-06T06:35:44.711Z,96814.88
2023-05-06T06:37:47.083Z,96823.09
2023-05-06T06:39:48.679Z,96818.63
2023-05-06T06:41:50.500Z,96820.28
2023-05-06T06:43:52.030Z,96818.91
2023-05-06T06:45:58.018Z,96827.03
2023-05-06T06:47:59.664Z,96824.81
2023-05-06T06:50:01.312Z,96831.97
2023-05-06T06:52:02.859Z,96829.69
2023-05-06T06:54:04.557Z,96831.31
2023-05-06T06:56:11.779Z,96832.25
2023-05-06T06:58:13.402Z,96832.63
2023-05-06T07:00:15.505Z,96831.91
2023-05-06T07:02:17.089Z,96838.59
2023-05-06T07:04:19.143Z,96841.88
2023-05-06T07:06:20.897Z,96837.94
2023-05-06T07:08:22.558Z,96839.75
2023-05-06T07:10:24.156Z,96844.44
2023-05-06T07:12:26.971Z,96850.06
2023-05-06T07:14:28.503Z,96838.56
2023-05-06T07:16:30.046Z,96838.25
2023-05-06T07:18:31.643Z,96847.84
2023-05-06T07:20:33.790Z,96843.41
2023-05-06T07:22:35.686Z,96848.91
2023-05-06T07:24:37.195Z,96848.78
2023-05-06T07:26:39.655Z,96845.00
2023-05-06T07:28:41.302Z,96846.56
2023-05-06T07:30:43.086Z,96848.06
2023-05-06T07:32:44.712Z,96841.75
2023-05-06T07:34:46.711Z,96849.19
2023-05-06T07:36:48.791Z,96849.56
2023-05-06T07:38:50.773Z,96840.72
2023-05-06T07:40:52.985Z,96848.69
2023-05-06T07:42:54.652Z,96848.84
2023-05-06T07:44:56.197Z,96858.13
2023-05-06T07:46:58.438Z,96847.19
2023-05-06T07:49:00.220Z,96850.75
2023-05-06T07:51:03.120Z,96852.31
2023-05-06T07:53:04.625Z,96861.63
2023-05-06T07:55:09.718Z,96855.59
2023-05-06T07:57:11.372Z,96862.66
2023-05-06T07:59:12.986Z,96872.50
2023-05-06T08:01:15.236Z,96860.63
2023-05-06T08:03:17.061Z,96870.41
2023-05-06T08:05:18.899Z,96861.72
2023-05-06T08:07:21.095Z,96873.69
2023-05-06T08:09:23.317Z,96875.38
2023-05-06T08:11:25.004Z,96879.50
2023-05-06T08:13:28.044Z,96876.13
2023-05-06T08:15:29.653Z,96879.53
2023-05-06T08:17:31.206Z,96874.53
2023-05-06T08:19:33.635Z,96884.34
2023-05-06T08:21:35.171Z,96882.97
2023-05-06T08:23:36.791Z,96880.28
2023-05-06T08:25:38.304Z,96867.91
2023-05-06T08:27:40.349Z,96872.75
2023-05-06T08:29:41.845Z,96872.03
2023-05-06T08:31:43.534Z,96878.84
2023-05-06T08:33:45.060Z,96871.94
2023-05-06T08:35:46.925Z,96872.63
2023-05-06T08:37:48.470Z,96881.63
2023-05-06T08:39:50.093Z,96886.22
2023-05-06T08:41:53.687Z,96874.22
2023-05-06T08:43:57.244Z,96887.72
2023-05-06T08:45:59.165Z,96885.50
2023-05-06T08:48:00.849Z,96882.72
2023-05-06T08:50:03.228Z,96874.22
2023-05-06T08:52:06.286Z,96877.22
2023-05-06T08:54:09.897Z,96882.53
2023-05-06T08:56:13.457Z,96878.75
2023-05-06T08:58:16.739Z,96884.63
2023-05-06T09:00:18.738Z,96888.75
2023-05-06T09:02:22.373Z,96885.03
2023-05-06T09:04:23.999Z,96879.53
2023-05-06T09:06:25.613Z,96883.56
2023-05-06T09:08:27.148Z,96883.13
2023-05-06T09:10:43.933Z,96886.22
2023-05-06T09:12:45.813Z,96879.94
2023-05-06T09:14:49.842Z,96881.94
2023-05-06T09:16:53.018Z,96887.28
2023-05-06T09:18:54.788Z,96882.13
2023-05-06T09:20:57.073Z,96883.13
2023-05-06T09:23:01.355Z,96888.72
2023-05-06T09:25:03.330Z,96883.56
2023-05-06T09:27:04.905Z,96882.31
2023-05-06T09:29:07.365Z,96885.88
2023-05-06T09:31:09.289Z,96882.53
2023-05-06T09:33:11.725Z,96885.97
2023-05-06T09:35:13.510Z,96878.91
2023-05-06T09:37:15.174Z,96883.56
2023-05-06T09:39:16.742Z,96889.63
2023-05-06T09:41:21.007Z,96882.19
2023-05-06T09:43:23.044Z,96888.78
2023-05-06T09:45:24.549Z,96885.50
2023-05-06T09:47:27.614Z,96883.75
2023-05-06T09:49:29.447Z,96884.41
2023-05-06T09:51:31.113Z,96883.22
2023-05-06T09:53:34.543Z,96882.41
2023-05-06T09:55:37.494Z,96874.31
2023-05-06T09:57:40.869Z,96878.63
2023-05-06T09:59:43.676Z,96872.13
2023-05-06T10:01:45.424Z,96875.28
2023-05-06T10:03:48.204Z,96875.00
2023-05-06T10:05:50.530Z,96871.94
2023-05-06T10:07:54.606Z,96874.03
2023-05-06T10:09:58.643Z,96868.59
2023-05-06T10:12:00.618Z,96870.44
2023-05-06T10:14:02.313Z,96872.28
2023-05-06T10:16:05.943Z,96880.66
2023-05-06T10:18:09.234Z,96872.97
2023-05-06T10:20:14.033Z,96868.41
2023-05-06T10:22:29.361Z,96871.22
2023-05-06T10:24:36.703Z,96865.09
2023-05-06T10:26:42.321Z,96863.41
2023-05-06T10:28:49.344Z,96866.78
2023-05-06T10:30:52.241Z,96862.88
2023-05-06T10:32:57.253Z,96872.50
2023-05-06T10:35:12.281Z,96870.94
2023-05-06T10:37:14.869Z,96867.22
2023-05-06T10:39:17.400Z,96861.44
2023-05-06T10:41:21.177Z,96851.13
2023-05-06T10:43:30.778Z,96859.78
2023-05-06T10:45:58.840Z,96859.31
2023-05-06T10:48:09.674Z,96847.53
2023-05-06T10:50:22.509Z,96847.81
2023-05-06T10:52:24.038Z,96843.03
2023-05-06T10:54:25.610Z,96831.16
2023-05-06T11:09:54.720Z,96840.06
2023-05-06T11:12:06.397Z,96826.81
2023-05-06T11:14:15.632Z,96833.06
2023-05-06T11:16:50.909Z,96836.31
2023-05-06T11:37:05.435Z,96829.59
2023-05-06T11:39:11.681Z,96838.41
2023-05-06T11:41:14.171Z,96838.69
2023-05-06T11:43:27.796Z,96825.06
2023-05-06T11:46:14.295Z,96828.78
2023-05-06T11:48:20.962Z,96839.75
2023-05-06T11:50:28.129Z,96830.00
2023-05-06T11:52:39.131Z,96834.03
2023-05-06T11:54:52.162Z,96830.22
2023-05-06T11:56:56.403Z,96826.41
2023-05-06T11:58:59.376Z,96824.91
2023-05-06T12:01:03.543Z,96829.50
2023-05-06T12:03:14.451Z,96825.19
2023-05-06T12:05:23.019Z,96828.81
2023-05-06T12:07:24.821Z,96825.94
2023-05-06T12:09:26.632Z,96820.00
2023-05-06T12:11:28.685Z,96826.56
2023-05-06T12:13:30.823Z,96815.50
2023-05-06T12:15:36.170Z,96826.53
2023-05-06T12:17:41.167Z,96807.28
2023-05-06T12:19:45.724Z,96809.88
2023-05-06T12:21:47.996Z,96810.84
2023-05-06T12:24:26.756Z,96812.59
2023-05-06T12:26:35.855Z,96803.00
2023-05-06T12:28:42.619Z,96810.84
2023-05-06T12:30:57.904Z,96804.91
2023-05-06T12:37:50.802Z,96809.28
2023-05-06T12:48:40.048Z,96816.53
2023-05-06T12:51:10.933Z,96805.09
2023-05-06T13:06:43.394Z,96805.16
2023-05-06T13:08:47.600Z,96811.81
2023-05-06T13:11:01.811Z,96806.94
2023-05-06T13:13:04.800Z,96806.47
2023-05-06T13:15:07.680Z,96801.63
2023-05-06T13:17:09.658Z,96803.75
2023-05-06T13:19:21.261Z,96803.59
2023-05-06T13:21:27.124Z,96799.59
2023-05-06T13:23:28.849Z,96800.91
2023-05-06T13:25:44.918Z,96794.94
2023-05-06T13:27:58.026Z,96788.44
2023-05-06T13:29:59.717Z,96790.53
2023-05-06T13:32:02.107Z,96794.59
2023-05-06T13:34:06.575Z,96783.53
2023-05-06T13:36:09.393Z,96780.31
2023-05-06T13:38:11.095Z,96781.13
2023-05-06T13:40:13.398Z,96781.34
2023-05-06T13:42:20.790Z,96788.31
2023-05-06T13:44:22.852Z,96782.78
2023-05-06T13:46:24.646Z,96780.91
2023-05-06T13:48:26.329Z,96792.09
2023-05-06T13:50:57.538Z,96782.75
2023-05-06T13:52:59.353Z,96776.16
2023-05-06T13:55:01.245Z,96776.22
2023-05-06T13:57:03.016Z,96766.88
2023-05-06T13:59:04.558Z,96764.47
2023-05-06T14:01:06.720Z,96759.72
2023-05-06T14:03:08.583Z,96765.19
2023-05-06T14:05:10.360Z,96761.44
2023-05-06T14:07:12.729Z,96762.81
2023-05-06T14:09:14.465Z,96764.22
2023-05-06T14:11:16.309Z,96760.16
2023-05-06T14:13:17.791Z,96758.56
2023-05-06T14:15:19.537Z,96759.13
2023-05-06T14:17:21.125Z,96750.25
2023-05-06T14:19:23.322Z,96750.56
2023-05-06T14:21:25.188Z,96752.28
2023-05-06T14:23:26.713Z,96748.56
2023-05-06T14:25:28.442Z,96747.84
2023-05-06T14:27:30.017Z,96747.84
2023-05-06T14:29:32.067Z,96748.72
2023-05-06T14:31:34.496Z,96737.59
2023-05-06T14:33:38.688Z,96743.81
2023-05-06T14:35:43.342Z,96749.84
2023-05-06T14:37:44.823Z,96732.19
2023-05-06T14:39:46.364Z,96737.25
2023-05-06T14:41:48.063Z,96734.72
2023-05-06T14:43:49.614Z,96731.31
2023-05-06T14:45:51.311Z,96733.22
2023-05-06T14:47:52.835Z,96735.94
2023-05-06T14:49:54.590Z,96734.03
2023-05-06T14:51:57.214Z,96737.09
2023-05-06T14:53:58.726Z,96733.53
2023-05-06T14:56:00.626Z,96730.28
2023-05-06T14:58:02.424Z,96717.84
2023-05-06T15:00:08.626Z,96724.91
2023-05-06T15:02:11.179Z,96724.72
2023-05-06T15:04:12.752Z,96718.06
2023-05-06T15:06:14.707Z,96725.94
2023-05-06T15:08:16.528Z,96722.19
2023-05-06T15:10:18.050Z,96728.09
2023-05-06T15:12:21.403Z,96723.31
2023-05-06T15:14:22.947Z,96719.75
2023-05-06T15:16:24.564Z,96717.53
2023-05-06T15:18:26.305Z,96723.16
2023-05-06T15:20:28.137Z,96722.16
2023-05-06T15:22:29.727Z,96718.47
2023-05-06T15:24:31.382Z,96723.91
2023-05-06T15:26:32.876Z,96721.88
2023-05-06T15:28:34.653Z,96727.38
2023-05-06T15:30:38.196Z,96732.53
2023-05-06T15:32:39.810Z,96724.25
2023-05-06T15:34:41.357Z,96726.38
2023-05-06T15:36:42.934Z,96723.06
2023-05-06T15:38:51.007Z,96729.19
2023-05-06T15:40:52.693Z,96723.69
2023-05-06T15:42:54.266Z,96731.59
2023-05-06T15:44:55.842Z,96718.69
2023-05-06T15:46:57.404Z,96723.16
2023-05-06T15:49:22.157Z,96725.38
2023-05-06T15:51:21.214Z,96724.09
2023-05-06T15:53:22.751Z,96719.84
2023-05-06T15:55:25.361Z,96721.22
2023-05-06T15:57:30.663Z,96719.47
2023-05-06T15:59:32.197Z,96722.19
2023-05-06T16:02:04.707Z,96726.94
2023-05-06T16:03:55.425Z,96719.75
2023-05-06T16:05:58.667Z,96714.47
2023-05-06T16:08:00.617Z,96716.19
2023-05-06T16:10:02.504Z,96719.00
2023-05-06T16:12:04.757Z,96721.00
2023-05-06T16:14:06.305Z,96713.97
2023-05-06T16:16:08.008Z,96724.00
2023-05-06T16:18:10.874Z,96716.75
2023-05-06T16:20:12.732Z,96719.00
2023-05-06T16:22:14.544Z,96711.94
2023-05-06T16:24:16.180Z,96720.00
2023-05-06T16:26:17.863Z,96716.47
2023-05-06T16:28:19.435Z,96710.69
2023-05-06T16:30:21.109Z,96720.53
2023-05-06T16:32:23.339Z,96712.19
2023-05-06T16:34:24.916Z,96717.66
2023-05-06T16:36:28.600Z,96714.19
2023-05-06T16:38:30.811Z,96715.94
2023-05-06T16:40:32.679Z,96722.78
2023-05-06T16:42:34.228Z,96711.31
2023-05-06T16:44:35.808Z,96709.94
2023-05-06T16:46:37.376Z,96707.59
2023-05-06T16:48:39.114Z,96711.50
2023-05-06T16:50:41.210Z,96703.94
2023-05-06T16:52:42.858Z,96708.75
2023-05-06T16:54:44.870Z,96709.53
2023-05-06T16:56:52.015Z,96707.06
2023-05-06T16:58:54.218Z,96707.19
2023-05-06T17:00:56.302Z,96702.63
2023-05-06T17:02:58.125Z,96707.03
2023-05-06T17:04:59.707Z,96706.19
2023-05-06T17:07:01.265Z,96707.47
2023-05-06T17:09:02.890Z,96702.19
2023-05-06T17:11:07.652Z,96708.09
2023-05-06T17:13:09.254Z,96708.66
2023-05-06T17:15:11.470Z,96703.06
2023-05-06T17:17:12.963Z,96707.50
2023-05-06T17:19:14.671Z,96703.94
2023-05-06T17:21:16.332Z,96710.63
2023-05-06T17:23:18.308Z,96702.75
2023-05-06T17:25:20.358Z,96704.63
2023-05-06T17:27:21.884Z,96704.22
2023-05-06T17:29:23.402Z,96704.53
2023-05-06T17:31:24.926Z,96704.84
2023-05-06T17:33:26.711Z,96698.88
2023-05-06T17:35:28.201Z,96702.34
2023-05-06T17:37:30.903Z,96705.78
2023-05-06T17:39:32.970Z,96702.72
2023-05-06T17:41:34.431Z,96703.03
2023-05-06T17:43:36.179Z,96707.13
2023-05-06T17:45:40.301Z,96698.91
2023-05-06T17:47:41.849Z,96701.16
2023-05-06T17:49:45.492Z,96699.41
2023-05-06T17:51:47.464Z,96705.06
2023-05-06T17:53:49.044Z,96698.91
2023-05-06T17:55:50.731Z,96705.22
2023-05-06T17:57:52.769Z,96699.78
2023-05-06T17:59:54.691Z,96705.66
2023-05-06T18:01:56.579Z,96711.22
2023-05-06T18:03:58.655Z,96707.81
2023-05-06T18:06:00.384Z,96705.97
2023-05-06T18:08:02.126Z,96712.84
2023-05-06T18:10:04.016Z,96707.56
2023-05-06T18:12:06.284Z,96706.22
2023-05-06T18:14:08.697Z,96704.41
2023-05-06T18:16:10.629Z,96705.75
2023-05-06T18:18:12.277Z,96717.13
2023-05-06T18:20:13.884Z,96713.97
2023-05-06T18:22:15.435Z,96716.72
2023-05-06T18:24:18.191Z,96723.31
2023-05-06T18:26:39.466Z,96718.59
2023-05-06T18:28:41.334Z,96716.63
2023-05-06T18:30:42.914Z,96720.78
2023-05-06T18:32:44.679Z,96721.28
2023-05-06T18:34:46.268Z,96714.50
2023-05-06T18:36:47.926Z,96716.31
2023-05-06T18:38:49.594Z,96717.66
2023-05-06T18:40:51.119Z,96716.41
2023-05-06T18:42:53.207Z,96714.81
2023-05-06T18:44:55.124Z,96712.31
2023-05-06T18:46:56.702Z,96722.94
2023-05-06T18:48:59.073Z,96716.88
2023-05-06T18:51:14.513Z,96723.22
2023-05-06T18:53:16.602Z,96730.63
2023-05-06T18:55:18.088Z,96730.00
2023-05-06T18:57:20.144Z,96733.03
2023-05-06T18:59:21.836Z,96728.88
2023-05-06T19:01:25.192Z,96726.31
2023-05-06T19:03:27.003Z,96725.75
2023-05-06T19:05:28.525Z,96719.66
2023-05-06T19:07:30.339Z,96736.66
2023-05-06T19:09:36.662Z,96727.56
2023-05-06T19:11:38.582Z,96732.84
2023-05-06T19:13:40.226Z,96721.66
2023-05-06T19:15:42.341Z,96722.69
2023-05-06T19:17:43.856Z,96723.19
2023-05-06T19:19:48.673Z,96730.59
2023-05-06T19:21:50.326Z,96731.34
2023-05-06T19:23:53.069Z,96732.81
2023-05-06T19:25:55.273Z,96728.81
2023-05-06T19:27:56.752Z,96731.31
2023-05-06T19:29:58.446Z,96722.03
2023-05-06T19:32:02.106Z,96726.56
2023-05-06T19:34:04.145Z,96731.22
2023-05-06T19:36:06.137Z,96728.84
2023-05-06T19:38:08.480Z,96727.16
2023-05-06T19:40:10.397Z,96741.22
2023-05-06T19:42:12.335Z,96743.84
2023-05-06T19:44:14.059Z,96736.69
2023-05-06T19:46:16.008Z,96732.94
2023-05-06T19:48:19.134Z,96742.00
2023-05-06T19:50:20.648Z,96735.66
2023-05-06T19:52:25.023Z,96734.16
2023-05-06T19:54:27.217Z,96731.84
2023-05-06T19:56:28.688Z,96737.84
2023-05-06T19:58:30.299Z,96736.31
2023-05-06T20:00:31.985Z,96739.25
2023-05-06T20:02:33.534Z,96744.03
2023-05-06T20:04:35.126Z,96741.63
2023-05-06T20:06:36.627Z,96739.91
2023-05-06T20:08:38.296Z,96749.81
2023-05-06T20:10:40.145Z,96745.81
2023-05-06T20:12:44.287Z,96733.59
2023-05-06T20:14:45.880Z,96739.41
2023-05-06T20:16:47.611Z,96742.56
2023-05-06T20:18:51.426Z,96742.38
2023-05-06T20:20:52.978Z,96740.09
2023-05-06T20:22:54.555Z,96737.19
2023-05-06T20:25:07.673Z,96732.94
2023-05-06T20:27:09.884Z,96736.25
2023-05-06T20:29:11.352Z,96725.41
2023-05-06T20:31:12.879Z,96727.97
2023-05-06T20:33:14.435Z,96733.63
2023-05-06T20:35:16.616Z,96738.97
2023-05-06T20:37:18.089Z,96747.69
2023-05-06T20:39:20.768Z,96739.47
2023-05-06T20:41:22.303Z,96747.84
2023-05-06T20:43:24.144Z,96738.38
2023-05-06T20:45:25.952Z,96735.97
2023-05-06T20:47:27.647Z,96740.53
2023-05-06T20:49:30.449Z,96745.75
2023-05-06T20:51:32.384Z,96747.41
2023-05-06T20:53:33.969Z,96740.09
2023-05-06T20:55:35.949Z,96743.47
2023-05-06T20:57:42.667Z,96739.44
2023-05-06T20:59:44.254Z,96734.75
2023-05-06T21:01:46.107Z,96737.47
2023-05-06T21:03:48.274Z,96732.03
2023-05-06T21:05:49.892Z,96729.53
2023-05-06T21:07:51.439Z,96727.59
2023-05-06T21:09:53.309Z,96736.53
2023-05-06T21:11:56.061Z,96738.25
2023-05-06T21:13:57.592Z,96734.13
2023-05-06T21:15:59.306Z,96731.31
2023-05-06T21:18:01.196Z,96736.75
2023-05-06T21:20:04.290Z,96734.75
2023-05-06T21:22:10.758Z,96732.91
2023-05-06T21:24:12.863Z,96730.66
2023-05-06T21:26:15.522Z,96730.19
2023-05-06T21:28:17.139Z,96737.59
2023-05-06T21:30:18.735Z,96734.66
2023-05-06T21:32:20.678Z,96733.03
2023-05-06T21:34:22.471Z,96732.47
2023-05-06T21:36:25.202Z,96722.81
2023-05-06T21:38:27.686Z,96724.66
2023-05-06T21:40:29.240Z,96729.53
2023-05-06T21:42:30.945Z,96725.84
2023-05-06T21:44:32.458Z,96734.44
2023-05-06T21:46:35.027Z,96736.97
2023-05-06T21:48:36.682Z,96733.25
2023-05-06T21:50:38.783Z,96736.31
2023-05-06T21:52:40.987Z,96737.19
2023-05-06T21:54:45.717Z,96737.19
2023-05-06T21:56:47.302Z,96742.72
2023-05-06T21:58:49.134Z,96743.03
2023-05-06T22:00:50.837Z,96738.47
2023-05-06T22:02:53.291Z,96738.47
2023-05-06T22:04:54.941Z,96736.97
2023-05-06T22:06:56.931Z,96737.69
2023-05-06T22:08:58.612Z,96736.63
2023-05-06T22:11:00.829Z,96740.63
2023-05-06T22:13:03.070Z,96733.47
2023-05-06T22:15:05.279Z,96739.47
2023-05-06T22:17:07.962Z,96733.81
2023-05-06T22:19:09.681Z,96728.88
2023-05-06T22:21:11.589Z,96733.91
2023-05-06T22:23:15.172Z,96727.72
2023-05-06T22:25:16.696Z,96726.31
2023-05-06T22:27:18.389Z,96717.16
2023-05-06T22:29:20.175Z,96722.59
2023-05-06T22:31:24.779Z,96719.22
2023-05-06T22:33:27.310Z,96726.19
2023-05-06T22:35:28.861Z,96725.31
2023-05-06T22:37:31.014Z,96720.00
2023-05-06T22:39:32.759Z,96721.94
2023-05-06T22:41:34.247Z,96722.81
2023-05-06T22:43:35.786Z,96718.78
2023-05-06T22:45:37.366Z,96725.44
2023-05-06T22:47:38.941Z,96731.19
2023-05-06T22:49:40.494Z,96729.22
2023-05-06T22:51:42.212Z,96717.28
2023-05-06T22:53:43.952Z,96728.25
2023-05-06T22:55:45.745Z,96726.19
2023-05-06T22:57:49.901Z,96722.94
2023-05-06T22:59:52.094Z,96726.59
2023-05-06T23:01:53.797Z,96717.72
2023-05-06T23:03:55.378Z,96722.50
2023-05-06T23:05:57.205Z,96728.59
2023-05-06T23:07:58.775Z,96743.91
2023-05-06T23:10:00.772Z,96731.50
2023-05-06T23:12:02.677Z,96731.50
2023-05-06T23:14:04.658Z,96729.22
2023-05-06T23:16:07.892Z,96728.44
2023-05-06T23:18:09.446Z,96730.84
2023-05-06T23:20:12.931Z,96729.31
2023-05-06T23:22:14.686Z,96733.44
2023-05-06T23:24:16.469Z,96730.34
2023-05-06T23:26:18.118Z,96729.13
2023-05-06T23:28:19.696Z,96730.28
2023-05-06T23:30:21.231Z,96727.41
2023-05-06T23:32:22.780Z,96735.94
2023-05-06T23:34:24.334Z,96731.97
2023-05-06T23:36:27.176Z,96736.44
2023-05-06T23:38:28.958Z,96738.78
2023-05-06T23:40:30.663Z,96737.88
2023-05-06T23:42:32.181Z,96740.03
2023-05-06T23:44:33.728Z,96738.28
2023-05-06T23:46:35.407Z,96743.44
2023-05-06T23:48:37.733Z,96744.56
2023-05-06T23:50:39.358Z,96748.78
2023-05-06T23:52:40.956Z,96749.03
2023-05-06T23:54:42.479Z,96749.66
2023-05-06T23:56:44.740Z,96748.16
2023-05-06T23:58:46.439Z,96750.06
